Time;durP1;ratioP1;P1;durP2;ratioP2;P2;SDS_P1;SDS_P2;PMS_P1;PMS_P2;Temp;Humidity;BMP_temperature;BMP_pressure;BME280_temperature;BME280_humidity;BME280_pressure;Samples;Min_cycle;Max_cycle;Signal;HPM_P1;HPM_P2
2024/03/26 00:02:03;;;;;;;12.20;7.28;;;;;;;4.95;53.12;94585.97;5086345;28;20482;-76
2024/03/26 00:04:29;;;;;;;14.60;7.80;;;;;;;4.94;52.94;94587.16;5085904;28;20051;-76
2024/03/26 00:06:55;;;;;;;13.60;6.95;;;;;;;4.94;53.16;94589.91;5084507;28;20028;-76
2024/03/26 00:09:21;;;;;;;12.90;7.57;;;;;;;4.91;53.00;94584.47;5086675;28;20160;-77
2024/03/26 00:11:46;;;;;;;11.30;7.32;;;;;;;4.88;53.19;94588.03;5084032;28;20510;-76
2024/03/26 00:14:12;;;;;;;15.68;7.75;;;;;;;4.92;52.90;94581.34;5085027;28;20021;-76
2024/03/26 00:16:37;;;;;;;10.52;6.97;;;;;;;4.89;53.04;94584.91;5084256;28;20031;-75
2024/03/26 00:19:03;;;;;;;15.00;8.07;;;;;;;4.85;53.16;94584.16;5086368;28;20027;-76
2024/03/26 00:21:28;;;;;;;12.20;7.35;;;;;;;4.84;53.07;94598.97;5067559;28;20073;-76
2024/03/26 00:23:54;;;;;;;11.30;7.20;;;;;;;4.84;53.35;94590.03;5086338;28;20039;-76
2024/03/26 00:26:19;;;;;;;11.43;7.25;;;;;;;4.76;53.46;94589.34;5086091;28;20024;-76
2024/03/26 00:28:45;;;;;;;14.25;8.05;;;;;;;4.71;53.49;94584.34;5083868;28;20490;-75
2024/03/26 00:31:10;;;;;;;11.63;7.65;;;;;;;4.66;53.59;94577.41;5086172;28;20039;-75
2024/03/26 00:33:35;;;;;;;12.85;7.90;;;;;;;4.62;53.84;94586.78;5085045;28;20039;-76
2024/03/26 00:36:01;;;;;;;15.65;9.20;;;;;;;4.60;53.62;94584.47;5084512;28;20028;-76
2024/03/26 00:38:26;;;;;;;12.15;8.48;;;;;;;4.57;53.71;94576.34;5067158;28;20027;-76
2024/03/26 00:40:51;;;;;;;12.65;8.00;;;;;;;4.52;53.91;94583.00;5084146;28;20606;-76
2024/03/26 00:43:17;;;;;;;12.02;7.70;;;;;;;4.41;54.08;94579.59;5085757;28;20144;-76
2024/03/26 00:45:44;;;;;;;14.90;9.00;;;;;;;4.40;54.11;94584.28;5084685;28;20028;-76
2024/03/26 00:48:10;;;;;;;14.13;8.50;;;;;;;4.35;54.32;94582.00;5067291;28;20117;-76
2024/03/26 00:50:35;;;;;;;13.55;8.13;;;;;;;4.33;54.15;94589.03;5083440;28;20577;-76
2024/03/26 00:53:00;;;;;;;15.20;8.52;;;;;;;4.30;54.37;94576.22;5084220;28;20394;-76
2024/03/26 00:55:27;;;;;;;17.75;9.07;;;;;;;4.33;54.23;94580.88;5084045;28;20020;-76
2024/03/26 00:57:53;;;;;;;13.25;7.10;;;;;;;4.36;54.18;94585.50;5085477;28;20038;-75
2024/03/26 01:00:19;;;;;;;13.88;8.60;;;;;;;4.32;54.18;94579.34;5085378;28;20076;-75
2024/03/26 01:02:44;;;;;;;12.52;8.00;;;;;;;4.29;54.35;94578.19;5083355;28;20474;-76
2024/03/26 01:05:10;;;;;;;11.07;8.02;;;;;;;4.24;54.56;94576.69;5083810;28;20479;-76
2024/03/26 01:07:35;;;;;;;12.32;7.88;;;;;;;4.17;54.78;94565.88;5084369;28;20115;-75
2024/03/26 01:10:01;;;;;;;13.43;7.63;;;;;;;4.18;54.56;94563.91;5084262;28;20123;-75
2024/03/26 01:12:26;;;;;;;12.52;7.63;;;;;;;4.16;54.62;94566.28;5083003;28;20021;-75
2024/03/26 01:14:52;;;;;;;13.07;8.35;;;;;;;4.12;54.79;94562.81;5083496;28;20470;-76
2024/03/26 01:17:17;;;;;;;13.77;7.68;;;;;;;4.15;54.52;94565.50;5084681;28;20044;-76
2024/03/26 01:19:43;;;;;;;16.08;8.48;;;;;;;4.12;54.44;94563.56;5084791;28;20470;-76
2024/03/26 01:22:08;;;;;;;12.32;8.45;;;;;;;4.13;54.81;94578.75;5085352;28;20393;-75
2024/03/26 01:24:34;;;;;;;13.55;7.28;;;;;;;3.89;54.83;94552.53;5082935;28;20028;-76
2024/03/26 01:26:59;;;;;;;10.75;6.68;;;;;;;4.09;54.73;94572.56;5085146;28;20032;-76
2024/03/26 01:29:24;;;;;;;12.40;8.18;;;;;;;4.10;54.75;94582.25;5082962;28;20032;-74
2024/03/26 01:31:50;;;;;;;9.27;5.82;;;;;;;4.05;54.66;94584.66;5083442;28;20024;-76
2024/03/26 01:34:18;;;;;;;10.25;6.40;;;;;;;4.08;54.75;94589.28;5066273;28;20113;-75
2024/03/26 01:36:45;;;;;;;14.27;7.72;;;;;;;3.99;55.03;94593.25;5084411;28;20036;-76
2024/03/26 01:39:11;;;;;;;10.60;7.30;;;;;;;3.96;54.93;94582.41;5084617;28;20032;-75
2024/03/26 01:41:36;;;;;;;12.20;6.82;;;;;;;3.88;55.30;94573.53;5083010;28;20513;-76
2024/03/26 01:44:02;;;;;;;11.18;7.03;;;;;;;3.90;55.33;94584.00;5066492;28;20031;-76
2024/03/26 01:46:28;;;;;;;10.93;6.63;;;;;;;3.89;55.46;94599.53;5084360;28;20034;-76
2024/03/26 01:48:53;;;;;;;12.40;7.03;;;;;;;3.84;55.53;94589.13;5083397;28;20032;-75
2024/03/26 01:51:20;;;;;;;11.95;7.47;;;;;;;3.86;55.45;94584.03;5082918;28;20486;-75
2024/03/26 01:53:45;;;;;;;12.00;7.72;;;;;;;3.87;55.40;94580.16;5083380;28;20111;-76
2024/03/26 01:56:12;;;;;;;10.93;7.20;;;;;;;3.90;55.63;94584.00;5083739;28;20020;-76
2024/03/26 01:58:37;;;;;;;12.27;7.60;;;;;;;3.84;55.57;94577.44;5086971;28;20089;-75
2024/03/26 02:01:03;;;;;;;12.57;7.28;;;;;;;3.85;55.53;94576.28;5087076;28;20028;-75
2024/03/26 02:03:28;;;;;;;12.20;7.18;;;;;;;3.86;55.66;94578.59;5086897;28;20024;-75
2024/03/26 02:05:54;;;;;;;14.70;7.80;;;;;;;3.80;56.00;94580.22;5088832;28;20028;-76
2024/03/26 02:08:19;;;;;;;13.88;7.95;;;;;;;3.76;56.30;94574.03;5086761;28;20123;-75
2024/03/26 02:10:45;;;;;;;12.73;7.97;;;;;;;3.67;56.72;94582.66;5088465;28;20031;-75
2024/03/26 02:13:10;;;;;;;14.95;8.18;;;;;;;3.66;57.23;94575.66;5088243;28;20036;-76
2024/03/26 02:15:35;;;;;;;14.35;8.07;;;;;;;3.60;57.23;94585.41;5088088;28;20028;-76
2024/03/26 02:18:01;;;;;;;13.80;7.65;;;;;;;3.67;57.06;94579.13;5088009;28;20046;-74
2024/03/26 02:20:26;;;;;;;11.52;7.43;;;;;;;3.67;56.81;94582.66;5088179;28;20024;-76
2024/03/26 02:22:56;;;;;;;10.68;7.28;;;;;;;3.64;56.95;94580.72;5086625;28;20032;-76
2024/03/26 02:25:21;;;;;;;10.15;6.90;;;;;;;3.68;56.48;94584.19;5086286;28;20032;-77
2024/03/26 02:27:46;;;;;;;12.07;7.30;;;;;;;3.68;56.43;94589.63;5089138;28;20097;-76
2024/03/26 02:30:12;;;;;;;10.23;7.45;;;;;;;3.71;56.50;94588.03;5087198;28;20028;-75
2024/03/26 02:32:37;;;;;;;13.10;7.88;;;;;;;3.72;56.66;94576.75;5088615;28;20040;-75
2024/03/26 02:35:03;;;;;;;13.55;7.53;;;;;;;3.72;56.22;94579.47;5088022;28;20409;-74
2024/03/26 02:37:28;;;;;;;13.38;7.70;;;;;;;3.71;56.20;94586.09;5086382;28;20059;-76
2024/03/26 02:39:53;;;;;;;10.73;7.18;;;;;;;3.70;56.04;94589.22;5086232;28;20031;-76
2024/03/26 02:42:19;;;;;;;10.80;7.00;;;;;;;3.71;56.01;94585.31;5086153;28;20024;-76
2024/03/26 02:44:44;;;;;;;13.07;7.45;;;;;;;3.73;56.12;94586.50;5086562;28;20036;-75
2024/03/26 02:47:10;;;;;;;13.10;7.50;;;;;;;3.74;56.16;94581.81;5085879;28;20099;-75
2024/03/26 02:49:35;;;;;;;15.85;8.02;;;;;;;3.68;56.11;94578.00;5086411;28;20028;-75
2024/03/26 02:52:00;;;;;;;14.27;8.05;;;;;;;3.71;56.04;94580.66;5087561;28;20030;-75
2024/03/26 02:54:26;;;;;;;10.70;7.22;;;;;;;3.74;56.07;94587.25;5087674;28;20024;-75
2024/03/26 02:56:51;;;;;;;10.20;7.15;;;;;;;3.72;56.17;94584.91;5085746;28;20123;-76
2024/03/26 02:59:17;;;;;;;11.95;7.97;;;;;;;3.66;56.13;94585.75;5085886;28;20035;-74
2024/03/26 03:01:42;;;;;;;13.13;7.93;;;;;;;3.64;56.14;94593.53;5087403;28;20107;-76
2024/03/26 03:04:07;;;;;;;13.38;7.43;;;;;;;3.56;56.29;94589.34;5085663;28;20027;-76
2024/03/26 03:06:33;;;;;;;11.57;6.97;;;;;;;3.63;56.25;94597.44;5088126;28;20016;-75
2024/03/26 03:08:58;;;;;;;15.00;7.97;;;;;;;3.54;56.21;94599.81;5086604;28;20107;-74
2024/03/26 03:11:23;;;;;;;14.20;8.15;;;;;;;3.52;56.53;94599.47;5086004;28;20119;-75
2024/03/26 03:13:49;;;;;;;15.45;9.38;;;;;;;3.52;56.42;94610.34;5085217;28;20077;-76
2024/03/26 03:16:14;;;;;;;15.15;9.93;;;;;;;3.49;56.71;94613.84;5087129;28;20024;-76
2024/03/26 03:18:40;;;;;;;16.67;10.38;;;;;;;3.55;56.72;94623.13;5086705;28;20523;-76
2024/03/26 03:21:05;;;;;;;18.33;10.75;;;;;;;3.54;56.55;94630.50;5085329;28;20028;-77
2024/03/26 03:23:31;;;;;;;15.75;9.48;;;;;;;3.47;56.69;94636.75;5085737;28;20036;-75
2024/03/26 03:25:57;;;;;;;17.17;10.38;;;;;;;3.47;56.97;94627.84;5084897;28;20089;-76
2024/03/26 03:28:22;;;;;;;19.65;10.10;;;;;;;3.49;56.88;94641.78;5085946;28;20047;-75
2024/03/26 03:30:48;;;;;;;17.35;9.88;;;;;;;3.42;57.00;94650.75;5085724;28;20108;-76
2024/03/26 03:33:13;;;;;;;14.93;9.40;;;;;;;3.44;56.78;94650.34;5086088;28;20449;-76
2024/03/26 03:35:42;;;;;;;15.93;9.18;;;;;;;3.39;57.06;94651.56;5085243;28;20115;-76
2024/03/26 03:38:07;;;;;;;16.85;9.55;;;;;;;3.44;56.89;94648.44;5085037;28;20042;-76
2024/03/26 03:40:36;;;;;;;19.55;10.25;;;;;;;3.44;56.91;94650.34;5068634;28;20118;-76
2024/03/26 03:43:02;;;;;;;17.35;9.48;;;;;;;3.49;56.70;94646.44;5084857;28;20478;-75
2024/03/26 03:45:28;;;;;;;18.80;9.70;;;;;;;3.38;57.26;94636.44;5085539;28;20111;-74
2024/03/26 03:47:56;;;;;;;13.35;8.25;;;;;;;3.37;57.36;94624.00;5067878;28;20115;-75
2024/03/26 03:50:22;;;;;;;17.90;9.85;;;;;;;3.32;57.67;94620.94;5085282;28;20085;-75
2024/03/26 03:52:47;;;;;;;17.75;9.65;;;;;;;3.33;57.71;94626.00;5085331;28;20028;-76
2024/03/26 03:55:12;;;;;;;14.35;10.20;;;;;;;3.20;58.16;94633.03;5084954;28;20032;-76
2024/03/26 03:57:39;;;;;;;17.45;9.93;;;;;;;3.19;58.31;94629.53;5084900;28;20248;-75
2024/03/26 04:00:06;;;;;;;21.17;10.48;;;;;;;3.26;58.13;94638.81;5084658;28;20024;-75
2024/03/26 04:02:32;;;;;;;16.15;9.65;;;;;;;3.24;58.19;94641.16;5085493;28;20474;-76
2024/03/26 04:04:58;;;;;;;16.35;10.77;;;;;;;3.19;58.29;94648.56;5084138;28;20111;-77
2024/03/26 04:07:23;;;;;;;19.00;9.77;;;;;;;3.24;58.10;94660.19;5085093;28;20537;-77
2024/03/26 04:09:51;;;;;;;15.65;9.68;;;;;;;3.15;57.85;94652.47;5084595;28;20028;-76
2024/03/26 04:12:17;;;;;;;15.20;9.40;;;;;;;3.15;57.64;94663.31;5084503;28;20028;-75
2024/03/26 04:14:42;;;;;;;12.98;8.35;;;;;;;3.14;57.47;94664.50;5084249;28;20024;-76
2024/03/26 04:17:08;;;;;;;14.10;7.97;;;;;;;3.11;57.25;94670.72;5084085;28;20514;-75
2024/03/26 04:19:33;;;;;;;12.73;8.23;;;;;;;3.10;56.84;94675.41;5085463;28;20020;-76
2024/03/26 04:21:58;;;;;;;18.23;8.40;;;;;;;3.09;56.74;94673.06;5083715;28;20486;-76
2024/03/26 04:24:24;;;;;;;12.75;7.68;;;;;;;3.06;56.56;94682.00;5084846;28;20114;-76
2024/03/26 04:26:49;;;;;;;15.45;8.77;;;;;;;3.08;56.72;94685.88;5084196;28;20032;-75
2024/03/26 04:29:14;;;;;;;15.35;9.82;;;;;;;3.04;56.98;94690.56;5084353;28;20177;-76
2024/03/26 04:31:40;;;;;;;19.23;11.27;;;;;;;3.06;56.86;94699.06;5084274;28;20035;-75
2024/03/26 04:34:05;;;;;;;22.65;11.93;;;;;;;2.93;56.85;94697.97;5083960;28;20069;-76
2024/03/26 04:36:31;;;;;;;19.52;11.50;;;;;;;2.85;57.17;94689.06;5085423;28;20031;-76
2024/03/26 04:38:56;;;;;;;19.23;11.27;;;;;;;2.97;57.42;94703.38;5083538;28;20027;-76
2024/03/26 04:41:21;;;;;;;19.48;11.30;;;;;;;3.03;57.18;94707.22;5084589;28;20077;-75
2024/03/26 04:43:47;;;;;;;22.20;11.05;;;;;;;3.01;57.24;94698.72;5066412;28;20460;-76
2024/03/26 04:46:12;;;;;;;17.80;10.57;;;;;;;3.01;57.38;94696.00;5084643;28;20032;-76
2024/03/26 04:48:37;;;;;;;17.33;10.50;;;;;;;3.01;57.81;94698.72;5085511;28;20107;-76
2024/03/26 04:51:03;;;;;;;18.52;10.50;;;;;;;3.00;57.24;94681.63;5083793;28;20039;-77
2024/03/26 04:53:28;;;;;;;16.60;10.75;;;;;;;3.00;57.44;94692.50;5085652;28;20443;-75
2024/03/26 04:55:54;;;;;;;17.23;11.30;;;;;;;2.97;57.19;94682.41;5083373;28;20478;-75
2024/03/26 04:58:19;;;;;;;17.13;10.13;;;;;;;3.03;56.93;94677.34;5084490;28;20032;-75
2024/03/26 05:00:50;;;;;;;14.60;10.18;;;;;;;3.01;57.04;94676.97;5066192;28;20043;-75
2024/03/26 05:03:16;;;;;;;19.50;10.02;;;;;;;3.06;56.75;94668.44;5067073;28;20412;-76
2024/03/26 05:05:41;;;;;;;17.20;9.57;;;;;;;3.04;56.86;94665.31;5083443;28;20032;-75
2024/03/26 05:08:07;;;;;;;18.17;9.90;;;;;;;3.10;56.73;94682.78;5085180;28;20073;-76
2024/03/26 05:10:32;;;;;;;15.18;9.82;;;;;;;3.13;56.94;94677.31;5085048;28;20106;-75
2024/03/26 05:12:58;;;;;;;16.80;10.20;;;;;;;3.20;56.81;94677.25;5082993;28;20020;-75
2024/03/26 05:15:23;;;;;;;16.33;10.10;;;;;;;3.22;56.86;94676.91;5085131;28;20036;-77
2024/03/26 05:17:48;;;;;;;17.25;10.43;;;;;;;3.22;57.14;94671.47;5082639;28;20143;-76
2024/03/26 05:20:14;;;;;;;15.48;10.90;;;;;;;3.27;57.19;94671.06;5083830;28;20157;-76
2024/03/26 05:22:39;;;;;;;19.92;11.48;;;;;;;3.35;56.99;94677.22;5084378;28;20034;-76
2024/03/26 05:25:06;;;;;;;17.83;11.77;;;;;;;3.35;57.05;94672.53;5084922;28;20024;-75
2024/03/26 05:27:32;;;;;;;22.50;11.95;;;;;;;3.40;57.36;94660.50;5083552;28;20036;-75
2024/03/26 05:29:57;;;;;;;18.95;12.60;;;;;;;3.45;57.38;94662.78;5084791;28;20020;-75
2024/03/26 05:32:22;;;;;;;17.52;11.40;;;;;;;3.43;57.69;94667.84;5085311;28;20028;-76
2024/03/26 05:34:49;;;;;;;16.65;12.30;;;;;;;3.47;57.58;94666.66;5082968;28;20123;-75
2024/03/26 05:37:15;;;;;;;18.13;12.10;;;;;;;3.52;57.63;94668.19;5085266;28;20028;-76
2024/03/26 05:39:41;;;;;;;17.10;10.40;;;;;;;3.50;57.64;94672.44;5083619;28;20379;-76
2024/03/26 05:42:07;;;;;;;16.45;10.85;;;;;;;3.57;57.85;94672.44;5083964;28;20020;-75
2024/03/26 05:44:32;;;;;;;18.55;11.80;;;;;;;3.63;57.57;94677.03;5084685;28;20478;-75
2024/03/26 05:46:58;;;;;;;17.65;11.73;;;;;;;3.63;57.63;94671.59;5084483;28;20398;-77
2024/03/26 05:49:23;;;;;;;25.52;12.40;;;;;;;3.75;57.57;94678.53;5083385;28;20469;-75
2024/03/26 05:51:49;;;;;;;19.42;12.63;;;;;;;3.77;57.66;94684.31;5082925;28;20028;-76
2024/03/26 05:54:14;;;;;;;16.77;10.88;;;;;;;3.83;57.67;94669.13;5083482;28;20259;-76
2024/03/26 05:56:39;;;;;;;17.27;11.95;;;;;;;3.84;57.72;94664.47;5082866;28;20168;-76
2024/03/26 05:59:05;;;;;;;19.67;11.05;;;;;;;3.87;57.63;94656.28;5083858;28;20028;-76
2024/03/26 06:01:30;;;;;;;16.90;11.90;;;;;;;4.02;57.58;94662.41;5082789;28;20024;-76
2024/03/26 06:03:55;;;;;;;15.90;11.15;;;;;;;4.08;57.02;94660.03;5084648;28;20042;-75
2024/03/26 06:06:21;;;;;;;16.90;11.30;;;;;;;4.13;57.06;94668.53;5082689;28;20031;-74
2024/03/26 06:08:46;;;;;;;17.88;11.07;;;;;;;4.19;56.77;94674.31;5082850;28;20471;-77
2024/03/26 06:11:12;;;;;;;15.43;10.75;;;;;;;4.23;56.49;94672.31;5083393;28;20036;-76
2024/03/26 06:13:37;;;;;;;18.83;11.43;;;;;;;4.33;56.42;94671.44;5083710;28;20509;-77
2024/03/26 06:16:04;;;;;;;16.10;11.65;;;;;;;4.39;56.14;94672.56;5084275;28;20028;-76
2024/03/26 06:18:29;;;;;;;17.92;12.02;;;;;;;4.49;56.01;94673.66;5082415;28;20494;-76
2024/03/26 06:20:55;;;;;;;22.40;14.35;;;;;;;4.58;56.54;94684.81;5083270;28;20161;-76
2024/03/26 06:23:20;;;;;;;22.40;13.50;;;;;;;4.69;56.04;94676.53;5082755;28;20028;-75
2024/03/26 06:25:45;;;;;;;21.05;14.32;;;;;;;4.77;56.03;94692.41;5084310;28;20084;-76
2024/03/26 06:28:11;;;;;;;25.08;15.63;;;;;;;4.92;55.76;94690.31;5084535;28;20032;-76
2024/03/26 06:30:37;;;;;;;20.85;13.63;;;;;;;4.99;55.47;94675.84;5083253;28;20049;-76
2024/03/26 06:33:02;;;;;;;21.73;13.90;;;;;;;5.10;55.15;94678.41;5083065;28;20069;-76
2024/03/26 06:35:28;;;;;;;23.25;13.65;;;;;;;5.17;55.19;94689.25;5083676;28;20111;-76
2024/03/26 06:37:53;;;;;;;17.98;12.25;;;;;;;5.11;54.83;94680.75;5084431;28;20149;-75
2024/03/26 06:40:19;;;;;;;16.65;11.45;;;;;;;5.32;54.36;94707.75;5083607;28;20088;-77
2024/03/26 06:42:44;;;;;;;17.05;10.55;;;;;;;5.45;53.99;94701.75;5067599;28;20046;-77
2024/03/26 06:45:09;;;;;;;18.08;11.63;;;;;;;5.53;53.81;94703.97;5090599;28;20044;-77
2024/03/26 06:47:35;;;;;;;18.38;12.43;;;;;;;5.69;53.68;94697.16;5088029;28;20028;-77
2024/03/26 06:50:00;;;;;;;16.50;11.98;;;;;;;5.83;53.30;94700.44;5087795;28;20611;-78
2024/03/26 06:52:26;;;;;;;16.73;11.10;;;;;;;6.00;52.77;94697.91;5086145;28;20031;-76
2024/03/26 06:54:51;;;;;;;16.90;11.50;;;;;;;6.14;52.23;94697.69;5069404;28;20113;-76
2024/03/26 06:57:16;;;;;;;19.27;10.82;;;;;;;6.29;51.64;94700.97;5085502;28;20024;-75
2024/03/26 07:02:26;;;;;;;16.50;11.38;;;;;;;6.59;51.42;94694.59;5087451;28;20042;-76
2024/03/26 07:04:51;;;;;;;15.50;11.00;;;;;;;6.72;50.53;94692.06;5085809;28;20039;-76
2024/03/26 07:07:16;;;;;;;14.95;10.77;;;;;;;6.84;50.08;94688.72;5086418;28;20066;-76
2024/03/26 07:09:42;;;;;;;19.40;12.40;;;;;;;6.93;50.34;94678.75;5087363;28;20509;-76
2024/03/26 07:12:07;;;;;;;18.25;12.48;;;;;;;7.12;49.44;94685.44;5087332;28;20064;-77
2024/03/26 07:14:33;;;;;;;16.20;10.27;;;;;;;7.31;49.00;94696.78;5085104;28;20024;-76
2024/03/26 07:16:59;;;;;;;18.60;10.82;;;;;;;7.41;48.87;94685.63;5085971;28;20047;-75
2024/03/26 07:19:24;;;;;;;21.85;13.43;;;;;;;7.57;48.88;94681.38;5085576;28;20386;-77
2024/03/26 07:21:49;;;;;;;19.75;13.18;;;;;;;7.64;48.60;94673.06;5085766;28;20509;-78
2024/03/26 07:24:15;;;;;;;22.00;12.95;;;;;;;7.71;48.62;94659.97;5086612;28;20035;-78
2024/03/26 07:26:40;;;;;;;18.23;13.45;;;;;;;7.85;48.40;94663.59;5086183;28;20028;-77
2024/03/26 07:29:05;;;;;;;25.45;14.10;;;;;;;7.92;48.53;94672.41;5086073;28;20027;-77
2024/03/26 07:31:32;;;;;;;27.58;15.52;;;;;;;8.06;48.37;94671.31;5085243;28;20097;-76
2024/03/26 07:33:57;;;;;;;18.60;12.77;;;;;;;8.26;47.71;94665.78;5086107;28;20028;-76
2024/03/26 07:36:22;;;;;;;19.90;11.90;;;;;;;8.44;46.71;94663.38;5068233;28;20024;-77
2024/03/26 07:38:48;;;;;;;20.50;11.55;;;;;;;8.55;46.50;94663.13;5085837;28;20024;-75
2024/03/26 07:41:13;;;;;;;16.05;10.20;;;;;;;8.71;45.42;94649.38;5085665;28;20024;-77
2024/03/26 07:43:38;;;;;;;13.00;9.10;;;;;;;8.72;44.57;94639.22;5086877;28;20522;-77
2024/03/26 07:46:04;;;;;;;14.52;9.88;;;;;;;8.82;44.49;94637.38;5085513;28;20024;-77
2024/03/26 07:48:29;;;;;;;15.00;8.80;;;;;;;8.94;44.36;94636.63;5086935;28;20051;-77
2024/03/26 07:50:55;;;;;;;12.63;8.32;;;;;;;9.03;43.60;94636.78;5087873;28;20063;-76
2024/03/26 07:53:20;;;;;;;14.60;8.25;;;;;;;9.13;43.54;94638.47;5087529;28;20028;-77
2024/03/26 07:55:45;;;;;;;14.00;8.60;;;;;;;9.29;43.26;94652.13;5085077;28;20020;-77
2024/03/26 07:58:11;;;;;;;18.05;9.75;;;;;;;9.32;43.21;94637.53;5085688;28;20152;-77
2024/03/26 08:00:37;;;;;;;13.82;9.68;;;;;;;9.45;42.49;94637.53;5086674;28;20024;-76
2024/03/26 08:03:02;;;;;;;17.52;9.73;;;;;;;9.61;42.56;94633.94;5084739;28;20020;-77
2024/03/26 08:05:27;;;;;;;15.02;8.25;;;;;;;9.82;41.12;94633.31;5086321;28;20036;-76
2024/03/26 08:07:53;;;;;;;14.57;8.80;;;;;;;9.89;40.74;94640.56;5084946;28;20454;-77
2024/03/26 08:10:19;;;;;;;12.98;8.50;;;;;;;9.96;40.84;94651.31;5086125;28;20096;-77
2024/03/26 08:12:45;;;;;;;10.70;7.72;;;;;;;10.02;40.38;94652.31;5084787;28;20157;-76
2024/03/26 08:15:11;;;;;;;11.93;8.13;;;;;;;10.07;39.66;94653.72;5085254;28;20024;-76
2024/03/26 08:17:36;;;;;;;15.40;8.43;;;;;;;10.20;39.96;94634.50;5086309;28;20527;-76
2024/03/26 08:20:02;;;;;;;13.82;8.70;;;;;;;10.33;40.20;94649.03;5085360;28;20059;-76
2024/03/26 08:22:27;;;;;;;15.52;8.75;;;;;;;10.43;40.00;94645.13;5084711;28;20448;-77
2024/03/26 08:24:53;;;;;;;14.77;9.52;;;;;;;10.55;39.34;94636.13;5067992;28;20028;-76
2024/03/26 08:27:18;;;;;;;13.48;7.78;;;;;;;10.63;38.73;94650.38;5086141;28;20035;-78
2024/03/26 08:29:45;;;;;;;12.02;7.90;;;;;;;10.69;38.82;94642.34;5084859;28;20177;-78
2024/03/26 08:32:10;;;;;;;11.02;7.18;;;;;;;10.81;38.76;94634.06;5083983;28;20157;-76
2024/03/26 08:34:36;;;;;;;10.40;7.38;;;;;;;11.03;38.56;94633.31;5086117;28;20123;-76
2024/03/26 08:37:02;;;;;;;11.57;8.25;;;;;;;11.20;37.75;94642.16;5083722;28;20020;-77
2024/03/26 08:39:27;;;;;;;12.27;8.07;;;;;;;11.24;37.60;94640.00;5084954;28;20035;-76
2024/03/26 08:41:53;;;;;;;11.13;7.70;;;;;;;11.36;37.27;94650.22;5083787;28;20478;-77
2024/03/26 08:44:18;;;;;;;13.82;8.23;;;;;;;11.37;37.30;94649.75;5067454;28;20546;-78
2024/03/26 08:46:43;;;;;;;14.05;7.30;;;;;;;11.53;37.11;94659.81;5084615;28;20107;-76
2024/03/26 08:49:09;;;;;;;14.30;7.50;;;;;;;11.65;36.90;94656.19;5083672;28;20028;-76
2024/03/26 08:51:34;;;;;;;11.05;7.85;;;;;;;11.70;36.10;94649.34;5084550;28;20111;-76
2024/03/26 08:54:00;;;;;;;17.48;7.57;;;;;;;11.70;36.23;94641.84;5083383;28;20085;-77
2024/03/26 08:56:25;;;;;;;10.10;6.97;;;;;;;11.80;35.67;94637.13;5085851;28;20059;-76
2024/03/26 08:58:51;;;;;;;11.10;7.65;;;;;;;11.89;35.31;94626.19;5085099;28;20024;-76
2024/03/26 09:01:16;;;;;;;9.85;6.03;;;;;;;11.96;34.73;94634.19;5091827;28;20039;-76
2024/03/26 09:03:42;;;;;;;11.57;6.28;;;;;;;12.13;34.13;94636.69;5084690;28;20020;-77
2024/03/26 09:06:07;;;;;;;11.20;5.78;;;;;;;12.26;33.43;94631.06;5084416;28;20027;-79
2024/03/26 09:08:33;;;;;;;7.32;5.47;;;;;;;12.31;33.50;94639.50;5084220;28;20035;-77
2024/03/26 09:10:59;;;;;;;7.68;4.68;;;;;;;12.54;33.03;94637.41;5066189;28;20112;-76
2024/03/26 09:13:25;;;;;;;7.47;5.18;;;;;;;12.67;32.67;94643.56;5066876;28;20530;-78
2024/03/26 09:15:51;;;;;;;6.85;4.20;;;;;;;12.80;31.42;94635.19;5083307;28;20336;-77
2024/03/26 09:18:16;;;;;;;10.45;4.93;;;;;;;12.91;30.99;94629.97;5085108;28;20090;-78
2024/03/26 09:20:41;;;;;;;8.32;4.65;;;;;;;12.93;31.15;94620.00;5083503;28;20036;-77
2024/03/26 09:23:07;;;;;;;8.70;5.15;;;;;;;13.13;30.95;94632.56;5083389;28;20115;-78
2024/03/26 09:25:32;;;;;;;7.68;4.30;;;;;;;13.19;31.01;94630.72;5085529;28;20028;-78
2024/03/26 09:27:58;;;;;;;10.10;5.30;;;;;;;13.36;31.14;94620.94;5082952;28;20109;-77
2024/03/26 09:30:27;;;;;;;11.93;6.40;;;;;;;13.49;31.53;94616.00;5083977;28;20123;-77
2024/03/26 09:32:53;;;;;;;10.80;6.60;;;;;;;13.52;32.01;94612.28;5066519;28;20506;-76
2024/03/26 09:35:19;;;;;;;11.77;7.45;;;;;;;13.63;32.12;94608.28;5083714;28;20035;-76
2024/03/26 09:37:45;;;;;;;13.38;8.25;;;;;;;13.83;32.40;94600.25;5066116;28;20039;-77
2024/03/26 09:40:12;;;;;;;14.10;7.38;;;;;;;14.02;32.10;94593.41;5083121;28;20409;-76
2024/03/26 09:42:37;;;;;;;11.40;7.50;;;;;;;14.11;31.51;94594.59;5083532;28;20085;-77
2024/03/26 09:45:05;;;;;;;11.63;8.43;;;;;;;14.24;31.69;94601.44;5082906;28;20027;-76
2024/03/26 09:47:33;;;;;;;7.82;6.13;;;;;;;14.40;30.16;94591.22;5083715;28;20035;-77
2024/03/26 09:50:02;;;;;;;10.35;6.20;;;;;;;14.60;29.94;94583.88;5082693;28;20482;-78
2024/03/26 09:52:33;;;;;;;10.95;6.22;;;;;;;14.80;29.81;94588.06;5083445;28;20054;-76
2024/03/26 09:55:00;;;;;;;11.38;4.80;;;;;;;14.99;28.32;94583.91;5066269;28;20074;-78
2024/03/26 09:57:26;;;;;;;12.65;5.35;;;;;;;15.16;28.38;94575.16;5083306;28;20057;-77
2024/03/26 09:59:53;;;;;;;12.05;6.50;;;;;;;15.26;28.40;94560.75;5083187;28;20025;-78
2024/03/26 10:02:19;;;;;;;7.80;4.90;;;;;;;15.45;27.03;94568.88;5082595;28;20093;-78
2024/03/26 10:04:45;;;;;;;7.15;4.90;;;;;;;15.45;27.10;94569.66;5083955;28;20492;-77
2024/03/26 10:07:10;;;;;;;11.38;5.57;;;;;;;15.59;27.35;94571.63;5083714;28;20475;-77
2024/03/26 10:09:36;;;;;;;10.32;5.97;;;;;;;15.81;27.41;94573.28;5083589;28;20052;-76
2024/03/26 10:12:02;;;;;;;11.55;6.45;;;;;;;16.02;27.56;94565.78;5087759;28;20031;-77
2024/03/26 10:14:28;;;;;;;8.75;4.05;;;;;;;16.18;26.44;94568.06;5087093;28;20107;-76
2024/03/26 10:16:57;;;;;;;7.78;4.57;;;;;;;16.27;25.93;94562.38;5084104;28;20091;-76
2024/03/26 10:19:22;;;;;;;6.05;3.60;;;;;;;16.23;25.55;94555.50;5086847;28;20028;-77
2024/03/26 10:21:48;;;;;;;7.28;3.60;;;;;;;16.36;25.79;94567.81;5087423;28;20368;-77
2024/03/26 10:24:13;;;;;;;5.88;3.67;;;;;;;16.42;25.45;94563.09;5086378;28;20043;-77
2024/03/26 10:26:38;;;;;;;7.65;3.67;;;;;;;16.61;25.62;94571.16;5087398;28;20036;-77
2024/03/26 10:29:04;;;;;;;5.45;2.45;;;;;;;16.69;24.55;94561.19;5069462;28;20463;-78
2024/03/26 10:31:29;;;;;;;4.03;3.08;;;;;;;16.87;24.64;94552.59;5087114;28;20493;-77
2024/03/26 10:33:56;;;;;;;8.18;3.25;;;;;;;17.15;24.15;94544.56;5086624;28;20478;-78
2024/03/26 10:36:22;;;;;;;4.53;2.60;;;;;;;17.23;23.50;94545.66;5086480;28;20047;-77
2024/03/26 10:38:50;;;;;;;5.40;2.72;;;;;;;17.16;24.04;94548.09;5086862;28;20024;-76
2024/03/26 10:41:29;;;;;;;5.15;2.65;;;;;;;17.15;24.05;94538.25;5086440;28;20103;-78
2024/03/26 10:43:55;;;;;;;3.78;2.60;;;;;;;17.16;23.93;94548.09;5087039;28;20064;-78
2024/03/26 10:46:21;;;;;;;5.13;2.40;;;;;;;17.25;23.65;94536.81;5085712;28;20035;-77
2024/03/26 10:48:46;;;;;;;5.15;2.58;;;;;;;17.31;23.25;94537.63;5086939;28;20029;-76
2024/03/26 10:51:12;;;;;;;3.90;2.10;;;;;;;17.47;22.87;94534.25;5087221;28;20016;-78
2024/03/26 10:53:38;;;;;;;5.00;2.97;;;;;;;17.70;23.03;94532.41;5086456;28;20028;-77
2024/03/26 10:56:05;;;;;;;4.38;1.92;;;;;;;17.56;21.64;94541.66;5087807;28;20024;-77
2024/03/26 10:58:30;;;;;;;4.38;1.30;;;;;;;17.48;21.68;94530.22;5085925;28;20533;-77
2024/03/26 11:00:56;;;;;;;2.30;1.30;;;;;;;17.54;21.72;94533.03;5086874;28;20024;-78
2024/03/26 11:03:22;;;;;;;3.75;1.92;;;;;;;17.66;22.06;94534.69;5085345;28;20028;-77
2024/03/26 11:05:47;;;;;;;5.63;3.70;;;;;;;17.68;22.70;94526.59;5086664;28;20419;-76
2024/03/26 11:08:17;;;;;;;7.53;3.40;;;;;;;17.75;23.13;94528.97;5086638;28;20036;-77
2024/03/26 11:11:02;;;;;;;6.55;3.30;;;;;;;18.07;23.12;94514.28;5069286;28;20027;-77
2024/03/26 11:13:28;;;;;;;6.72;3.63;;;;;;;17.99;22.98;94505.63;5086093;28;20031;-77
2024/03/26 11:15:54;;;;;;;5.10;2.90;;;;;;;18.14;22.28;94509.00;5085594;28;20036;-77
2024/03/26 11:18:31;;;;;;;4.13;2.10;;;;;;;18.23;21.71;94508.03;5085958;28;20072;-77
2024/03/26 11:21:07;;;;;;;2.90;1.90;;;;;;;18.00;22.54;94498.78;5085474;28;20036;-79
2024/03/26 11:23:41;;;;;;;4.95;2.10;;;;;;;18.09;22.44;94481.16;5077756;28;20078;-77
2024/03/26 11:26:07;;;;;;;4.40;2.40;;;;;;;18.10;22.89;94483.44;5092495;28;20035;-77